LFRG/DOL METAR and TAF weather

Enter ICAO airport designator
Station Type Date Time Source
LFRG METAR 2019/08/25 19:30 UTC NOAA

LFRG 251930Z AUTO 30005KT 260V350 3900 BR VV/// 17/17 Q1019 TEMPO 9999 NSW BKN003


Station Type Date Time Source
LFRG Decoded METAR 2019/08/25 19:30 UTC NOAA

Station name not available
Aug 25, 2019 - 03:30 PM EDT / 2019.08.25 1930 UTC
Wind: from the WNW (300 degrees) at 6 MPH (5 KT) (direction variable):0
Visibility: 2 mile(s):0
Sky conditions: obscured
Weather: mist
Temperature: 62 F (17 C)
Dew Point: 62 F (17 C)
Relative Humidity: 100%
Pressure (altimeter): 30.09 in. Hg (1019 hPa)
ob: LFRG 251930Z AUTO 30005KT 260V350 3900 BR VV/// 17/17 Q1019 TEMPO 9999 NSW BKN003
cycle: 19

Station Type Date Time Source
LFRG TAF 2014/12/22 18:42 UTC NOAA

TAF
AMD TAF
AMD LFRG 221837Z 2218/2221 25015KT 9999 OVC015
TEMPO 2218/2221 BKN007 PROB30
TEMPO 2218/2221 25015G25KT 4000 DZ BKN003

Example: see airport list